createdAt,value
2019-03-24T00:02:13.011Z,99.90
2019-03-24T00:04:41.463Z,99.90
2019-03-24T00:07:29.265Z,99.90
2019-03-24T00:09:57.684Z,99.90
2019-03-24T00:12:37.910Z,99.90
2019-03-24T00:15:08.060Z,99.90
2019-03-24T00:17:36.511Z,99.90
2019-03-24T00:20:06.832Z,99.90
2019-03-24T00:22:35.296Z,99.90
2019-03-24T00:25:23.056Z,99.90
2019-03-24T00:27:51.526Z,99.90
2019-03-24T00:30:20.082Z,99.90
2019-03-24T00:32:57.630Z,99.90
2019-03-24T00:35:45.370Z,99.90
2019-03-24T00:38:13.824Z,99.90
2019-03-24T00:40:42.254Z,99.90
2019-03-24T00:43:10.708Z,99.90
2019-03-24T00:45:39.219Z,99.90
2019-03-24T00:48:07.659Z,99.90
2019-03-24T00:50:36.077Z,99.90
2019-03-24T00:53:23.961Z,99.90
2019-03-24T00:56:11.769Z,99.90
2019-03-24T00:58:40.182Z,99.90
2019-03-24T01:01:28.044Z,99.90
2019-03-24T01:03:56.492Z,99.90
2019-03-24T01:06:24.939Z,99.90
2019-03-24T01:08:53.360Z,99.90
2019-03-24T01:11:41.151Z,99.90
2019-03-24T01:14:09.563Z,99.90
2019-03-24T01:16:57.345Z,99.90
2019-03-24T01:19:25.771Z,99.90
2019-03-24T01:22:13.555Z,99.90
2019-03-24T01:24:41.970Z,99.90
2019-03-24T01:27:29.796Z,99.90
2019-03-24T01:29:58.253Z,99.90
2019-03-24T01:32:46.034Z,99.90
2019-03-24T01:35:14.619Z,99.90
2019-03-24T01:37:43.075Z,99.90
2019-03-24T01:40:12.310Z,99.90
2019-03-24T01:42:41.057Z,99.90
2019-03-24T01:45:28.884Z,99.90
2019-03-24T01:48:09.208Z,99.90
2019-03-24T01:50:37.663Z,99.90
2019-03-24T01:53:25.426Z,99.90
2019-03-24T01:56:05.893Z,99.90
2019-03-24T01:58:34.307Z,99.90
2019-03-24T02:01:02.731Z,99.90
2019-03-24T02:03:31.198Z,99.90
2019-03-24T02:05:59.611Z,99.90
2019-03-24T02:08:28.028Z,99.90
2019-03-24T02:10:56.480Z,99.90
2019-03-24T02:13:27.947Z,99.90
2019-03-24T02:15:56.448Z,99.90
2019-03-24T02:18:24.863Z,99.90
2019-03-24T02:20:53.316Z,99.90
2019-03-24T02:23:21.736Z,99.90
2019-03-24T02:26:09.520Z,99.90
2019-03-24T02:28:57.279Z,99.90
2019-03-24T02:31:25.732Z,99.90
2019-03-24T02:33:54.144Z,99.90
2019-03-24T02:36:22.612Z,99.90
2019-03-24T02:38:51.084Z,99.90
2019-03-24T02:41:19.507Z,99.90
2019-03-24T02:43:47.965Z,99.90
2019-03-24T02:46:24.219Z,99.90
2019-03-24T02:48:46.685Z,99.90
2019-03-24T02:51:15.131Z,99.90
2019-03-24T02:53:43.562Z,99.90
2019-03-24T02:56:12.058Z,99.90
2019-03-24T02:58:40.513Z,99.90
2019-03-24T03:01:28.268Z,99.90
2019-03-24T03:03:56.705Z,99.90
2019-03-24T03:06:44.471Z,99.90
2019-03-24T03:09:12.984Z,99.90
2019-03-24T03:11:41.402Z,99.90
2019-03-24T03:14:09.860Z,99.90
2019-03-24T03:16:39.386Z,99.90
2019-03-24T03:19:08.065Z,99.90
2019-03-24T03:21:55.861Z,99.90
2019-03-24T03:24:24.367Z,99.90
2019-03-24T03:26:52.804Z,99.90
2019-03-24T03:29:21.257Z,99.90
2019-03-24T03:31:49.681Z,99.90
2019-03-24T03:34:37.543Z,99.90
2019-03-24T03:37:06.128Z,99.90
2019-03-24T03:39:37.162Z,99.90
2019-03-24T03:42:05.750Z,99.90
2019-03-24T03:44:34.236Z,99.90
2019-03-24T03:47:02.670Z,99.90
2019-03-24T03:49:31.191Z,99.90
2019-03-24T03:51:59.651Z,99.90
2019-03-24T03:54:47.494Z,99.90
2019-03-24T03:57:15.934Z,99.90
2019-03-24T03:59:44.357Z,99.90
2019-03-24T04:02:32.220Z,99.90
2019-03-24T04:05:00.649Z,99.90
2019-03-24T04:07:29.075Z,99.90
2019-03-24T04:09:57.507Z,99.90
2019-03-24T04:12:26.134Z,99.90
2019-03-24T04:14:54.552Z,99.90
2019-03-24T04:17:22.973Z,99.90
2019-03-24T04:20:10.831Z,99.90
2019-03-24T04:22:39.322Z,99.90
2019-03-24T04:25:07.875Z,99.90
2019-03-24T04:27:55.661Z,99.90
2019-03-24T04:30:24.178Z,99.90
2019-03-24T04:32:52.681Z,99.90
2019-03-24T04:35:21.206Z,99.90
2019-03-24T04:37:49.664Z,99.90
2019-03-24T04:40:37.450Z,99.90
2019-03-24T04:43:05.871Z,99.90
2019-03-24T04:45:34.331Z,99.90
2019-03-24T04:48:22.112Z,99.90
2019-03-24T04:51:09.899Z,99.90
2019-03-24T04:53:38.333Z,99.90
2019-03-24T04:56:06.967Z,99.90
2019-03-24T04:58:35.383Z,99.90
2019-03-24T05:01:03.867Z,99.90
2019-03-24T05:03:32.329Z,99.90
2019-03-24T05:06:00.883Z,99.90
2019-03-24T05:08:49.540Z,99.90
2019-03-24T05:14:20.125Z,99.90
2019-03-24T05:16:48.548Z,99.90
2019-03-24T05:19:36.343Z,99.90
2019-03-24T05:22:04.814Z,99.90
2019-03-24T05:24:33.228Z,99.90
2019-03-24T05:27:02.150Z,99.90
2019-03-24T05:29:30.600Z,99.90
2019-03-24T05:32:18.390Z,99.90
2019-03-24T05:34:46.911Z,99.90
2019-03-24T05:37:15.402Z,99.90
2019-03-24T05:39:43.828Z,99.90
2019-03-24T05:42:31.607Z,99.90
2019-03-24T05:45:00.057Z,99.90
2019-03-24T05:47:36.797Z,99.90
2019-03-24T05:49:58.691Z,99.90
2019-03-24T05:52:27.729Z,99.90
2019-03-24T05:54:56.356Z,99.90
2019-03-24T05:57:24.775Z,99.90
2019-03-24T06:00:12.942Z,99.90
2019-03-24T06:02:53.629Z,99.90
2019-03-24T06:05:34.175Z,99.90
2019-03-24T06:08:02.597Z,99.90
2019-03-24T06:10:31.054Z,99.90
2019-03-24T06:13:18.852Z,99.90
2019-03-24T06:15:47.276Z,99.90
2019-03-24T06:18:15.716Z,99.90
2019-03-24T06:20:44.163Z,99.90
2019-03-24T06:23:12.587Z,99.90
2019-03-24T06:25:41.101Z,99.90
2019-03-24T06:28:22.048Z,99.90
2019-03-24T06:30:50.510Z,99.90
2019-03-24T06:33:18.990Z,99.90
2019-03-24T06:35:47.497Z,99.90
2019-03-24T06:38:15.912Z,99.90
2019-03-24T06:40:44.363Z,99.90
2019-03-24T06:43:12.792Z,99.90
2019-03-24T06:45:41.252Z,99.90
2019-03-24T06:48:29.096Z,99.90
2019-03-24T06:50:57.581Z,99.90
2019-03-24T06:53:26.044Z,99.90
2019-03-24T06:55:54.491Z,99.90
2019-03-24T06:58:42.290Z,99.90
2019-03-24T07:01:10.815Z,99.90
2019-03-24T07:03:39.259Z,99.90
2019-03-24T07:06:07.751Z,99.90
2019-03-24T07:08:36.200Z,99.90
2019-03-24T07:11:11.417Z,99.90
2019-03-24T07:13:54.195Z,99.90
2019-03-24T07:16:22.625Z,99.90
2019-03-24T07:19:11.254Z,99.90
2019-03-24T07:21:39.683Z,99.90
2019-03-24T07:24:08.124Z,99.90
2019-03-24T07:26:36.550Z,99.90
2019-03-24T07:29:05.055Z,99.90
2019-03-24T07:31:33.508Z,99.90
2019-03-24T07:34:02.304Z,99.90
2019-03-24T07:36:30.758Z,99.90
2019-03-24T07:38:59.182Z,99.90
2019-03-24T07:41:27.673Z,99.90
2019-03-24T07:43:56.330Z,99.90
2019-03-24T07:46:24.839Z,99.90
2019-03-24T07:48:53.323Z,99.90
2019-03-24T07:51:21.770Z,99.90
2019-03-24T07:53:50.351Z,99.90
2019-03-24T07:56:18.767Z,99.90
2019-03-24T07:58:47.219Z,99.90
2019-03-24T08:01:35.045Z,99.90
2019-03-24T08:04:07.013Z,99.90
2019-03-24T08:06:35.487Z,99.90
2019-03-24T08:09:23.350Z,99.90
2019-03-24T08:11:53.545Z,99.90
2019-03-24T08:14:22.079Z,99.90
2019-03-24T08:16:50.570Z,99.90
2019-03-24T08:19:18.987Z,99.90
2019-03-24T08:21:47.422Z,99.90
2019-03-24T08:24:16.005Z,99.90
2019-03-24T08:26:44.447Z,99.90
2019-03-24T08:29:13.086Z,99.90
2019-03-24T08:31:41.976Z,99.90
2019-03-24T08:34:10.523Z,99.90
2019-03-24T08:36:58.547Z,99.90
2019-03-24T08:39:27.149Z,99.90
2019-03-24T08:41:55.612Z,99.90
2019-03-24T08:44:43.403Z,99.90
2019-03-24T08:47:11.847Z,99.90
2019-03-24T08:49:40.263Z,99.90
2019-03-24T08:52:08.720Z,99.90
2019-03-24T08:54:37.211Z,99.90
2019-03-24T08:57:05.737Z,99.90
2019-03-24T08:59:34.232Z,99.90
2019-03-24T09:02:02.656Z,99.90
2019-03-24T09:04:31.103Z,99.90
2019-03-24T09:06:59.531Z,99.90
2019-03-24T09:09:27.984Z,99.90
2019-03-24T09:11:56.464Z,99.90
2019-03-24T09:14:24.902Z,99.90
2019-03-24T09:16:53.377Z,99.90
2019-03-24T09:19:21.812Z,99.90
2019-03-24T09:21:50.352Z,99.90
2019-03-24T09:24:18.816Z,99.90
2019-03-24T09:26:47.260Z,99.90
2019-03-24T09:29:15.675Z,99.90
2019-03-24T09:31:44.121Z,99.90
2019-03-24T09:34:31.897Z,99.90
2019-03-24T09:37:00.334Z,99.90
2019-03-24T09:39:28.760Z,99.90
2019-03-24T09:41:57.218Z,99.90
2019-03-24T09:44:25.691Z,99.90
2019-03-24T09:46:54.246Z,99.90
2019-03-24T09:49:22.667Z,99.90
2019-03-24T09:51:51.121Z,99.90
2019-03-24T09:54:19.556Z,99.90
2019-03-24T09:56:48.019Z,99.70
2019-03-24T09:59:16.534Z,99.10
2019-03-24T10:01:44.977Z,98.80
2019-03-24T10:04:32.801Z,98.10
2019-03-24T10:07:01.292Z,97.80
2019-03-24T10:09:29.737Z,97.40
2019-03-24T10:11:58.257Z,96.60
2019-03-24T10:14:26.747Z,96.40
2019-03-24T10:16:55.786Z,96.50
2019-03-24T10:19:24.425Z,96.40
2019-03-24T10:21:52.854Z,96.00
2019-03-24T10:24:40.639Z,95.60
2019-03-24T10:27:09.104Z,94.90
2019-03-24T10:29:56.926Z,94.30
2019-03-24T10:32:25.371Z,93.90
2019-03-24T10:34:54.139Z,93.80
2019-03-24T10:37:43.760Z,93.80
2019-03-24T10:40:15.564Z,93.80
2019-03-24T10:42:45.912Z,93.70
2019-03-24T10:45:16.173Z,93.30
2019-03-24T10:48:08.077Z,93.10
2019-03-24T10:50:37.044Z,92.00
2019-03-24T10:53:06.181Z,91.20
2019-03-24T10:55:36.857Z,91.20
2019-03-24T10:58:24.800Z,90.90
2019-03-24T11:00:53.226Z,90.90
2019-03-24T11:03:21.656Z,90.40
2019-03-24T11:05:50.142Z,89.20
2019-03-24T11:08:18.678Z,90.10
2019-03-24T11:11:06.457Z,90.40
2019-03-24T11:13:34.911Z,90.80
2019-03-24T11:16:03.433Z,88.30
2019-03-24T11:18:31.903Z,86.00
2019-03-24T11:21:00.387Z,85.10
2019-03-24T11:23:28.855Z,86.00
2019-03-24T11:25:57.340Z,87.00
2019-03-24T11:28:25.755Z,87.70
2019-03-24T11:31:13.551Z,87.80
2019-03-24T11:33:41.995Z,87.90
2019-03-24T11:36:10.447Z,88.40
2019-03-24T11:38:59.198Z,88.00
2019-03-24T11:41:27.855Z,88.60
2019-03-24T11:43:56.290Z,88.80
2019-03-24T11:46:24.744Z,89.30
2019-03-24T11:48:53.179Z,89.20
2019-03-24T11:51:21.624Z,89.70
2019-03-24T11:53:50.060Z,89.10
2019-03-24T11:56:18.484Z,88.40
2019-03-24T11:58:47.039Z,88.70
2019-03-24T12:01:15.873Z,88.70
2019-03-24T12:03:45.936Z,88.50
2019-03-24T12:06:15.114Z,88.70
2019-03-24T12:08:44.187Z,89.20
2019-03-24T12:11:12.696Z,89.20
2019-03-24T12:13:41.476Z,89.70
2019-03-24T12:16:10.078Z,89.20
2019-03-24T12:18:38.682Z,89.10
2019-03-24T12:21:07.346Z,89.00
2019-03-24T12:23:38.279Z,88.60
2019-03-24T12:26:07.052Z,87.40
2019-03-24T12:28:54.951Z,87.30
2019-03-24T12:31:23.649Z,86.40
2019-03-24T12:33:52.397Z,85.80
2019-03-24T12:36:40.241Z,84.60
2019-03-24T12:39:08.709Z,84.00
2019-03-24T12:41:37.137Z,83.80
2019-03-24T12:44:05.553Z,81.90
2019-03-24T12:46:53.463Z,81.00
2019-03-24T12:49:21.983Z,80.00
2019-03-24T12:51:50.639Z,78.90
2019-03-24T12:54:19.288Z,76.80
2019-03-24T12:56:47.906Z,73.30
2019-03-24T12:59:16.675Z,74.50
2019-03-24T13:01:45.163Z,73.90
2019-03-24T13:04:13.652Z,70.40
2019-03-24T13:06:42.211Z,69.80
2019-03-24T13:09:10.907Z,69.60
2019-03-24T13:11:39.403Z,68.20
2019-03-24T13:14:07.978Z,66.00
2019-03-24T13:16:36.782Z,65.80
2019-03-24T13:19:05.811Z,66.00
2019-03-24T13:21:35.683Z,65.10
2019-03-24T13:24:09.087Z,64.30
2019-03-24T13:26:37.875Z,64.10
2019-03-24T13:29:06.361Z,64.40
2019-03-24T13:31:34.805Z,62.40
2019-03-24T13:34:22.610Z,61.00
2019-03-24T13:36:51.031Z,60.70
2019-03-24T13:39:19.468Z,63.90
2019-03-24T13:41:47.916Z,62.10
2019-03-24T13:44:19.447Z,61.90
2019-03-24T13:46:48.566Z,62.00
2019-03-24T13:49:18.089Z,55.70
2019-03-24T13:51:47.026Z,52.90
2019-03-24T13:54:23.338Z,53.90
2019-03-24T13:56:51.932Z,53.20
2019-03-24T13:59:39.748Z,54.70
2019-03-24T14:02:09.068Z,54.50
2019-03-24T14:04:37.563Z,50.80
2019-03-24T14:07:06.092Z,48.20
2019-03-24T14:09:34.729Z,44.30
2019-03-24T14:12:03.458Z,41.30
2019-03-24T14:14:31.951Z,37.60
2019-03-24T14:17:00.509Z,35.60
2019-03-24T14:19:29.120Z,33.20
2019-03-24T14:21:58.705Z,31.10
2019-03-24T14:24:27.284Z,30.40
2019-03-24T14:26:55.843Z,29.60
2019-03-24T14:29:27.030Z,29.60
2019-03-24T14:31:54.748Z,28.90
2019-03-24T14:34:23.569Z,27.80
2019-03-24T14:36:52.718Z,27.10
2019-03-24T14:39:21.483Z,28.50
2019-03-24T14:41:50.222Z,28.60
2019-03-24T14:44:22.320Z,27.20
2019-03-24T14:46:51.195Z,26.20
2019-03-24T14:49:19.759Z,26.10
2019-03-24T14:51:48.748Z,26.30
2019-03-24T14:54:17.312Z,25.80
2019-03-24T14:56:45.847Z,26.20
2019-03-24T14:59:20.210Z,25.40
2019-03-24T15:01:48.651Z,25.60
2019-03-24T15:04:17.103Z,26.20
2019-03-24T15:06:45.551Z,26.50
2019-03-24T15:09:33.367Z,26.20
2019-03-24T15:12:01.796Z,24.90
2019-03-24T15:14:30.216Z,25.30
2019-03-24T15:16:58.666Z,24.50
2019-03-24T15:19:46.461Z,24.60
2019-03-24T15:22:14.915Z,24.60
2019-03-24T15:24:43.413Z,24.80
2019-03-24T15:27:11.837Z,25.20
2019-03-24T15:29:40.298Z,24.40
2019-03-24T15:32:08.720Z,24.10
2019-03-24T15:34:37.189Z,24.60
2019-03-24T15:37:05.612Z,24.50
2019-03-24T15:39:53.406Z,24.50
2019-03-24T15:42:21.822Z,23.60
2019-03-24T15:45:10.279Z,23.30
2019-03-24T15:47:38.714Z,23.80
2019-03-24T15:50:26.499Z,23.40
2019-03-24T15:52:54.956Z,23.70
2019-03-24T15:55:23.412Z,23.70
2019-03-24T15:57:51.860Z,23.80
2019-03-24T16:00:40.751Z,23.30
2019-03-24T16:03:09.211Z,22.70
2019-03-24T16:05:37.677Z,23.40
2019-03-24T16:08:25.543Z,22.90
2019-03-24T16:11:13.335Z,23.20
2019-03-24T16:13:41.762Z,23.10
2019-03-24T16:16:29.558Z,23.40
2019-03-24T16:18:58.020Z,24.00
2019-03-24T16:21:28.034Z,24.30
2019-03-24T16:23:56.616Z,24.40
2019-03-24T16:26:25.065Z,24.00
2019-03-24T16:29:12.891Z,24.30
2019-03-24T16:31:41.348Z,24.40
2019-03-24T16:34:09.783Z,24.70
2019-03-24T16:36:57.576Z,24.70
2019-03-24T16:39:26.027Z,24.90
2019-03-24T16:41:54.516Z,25.70
2019-03-24T16:44:23.032Z,26.00
2019-03-24T16:46:51.464Z,26.50
2019-03-24T16:49:19.918Z,26.50
2019-03-24T16:51:48.344Z,27.30
2019-03-24T16:54:36.152Z,27.80
2019-03-24T16:57:04.613Z,28.30
2019-03-24T16:59:33.041Z,28.60
2019-03-24T17:02:09.677Z,28.30
2019-03-24T17:04:43.813Z,28.80
2019-03-24T17:07:12.236Z,28.70
2019-03-24T17:09:40.701Z,29.00
2019-03-24T17:12:09.255Z,29.00
2019-03-24T17:14:37.806Z,29.30
2019-03-24T17:17:06.317Z,30.00
2019-03-24T17:19:34.778Z,31.20
2019-03-24T17:22:03.222Z,32.90
2019-03-24T17:24:31.650Z,34.00
2019-03-24T17:27:00.104Z,35.20
2019-03-24T17:29:28.567Z,36.30
2019-03-24T17:31:57.015Z,37.60
2019-03-24T17:34:25.459Z,38.30
2019-03-24T17:36:53.916Z,38.70
2019-03-24T17:39:22.348Z,39.00
2019-03-24T17:41:50.819Z,39.50
2019-03-24T17:44:19.367Z,39.80
2019-03-24T17:46:47.816Z,40.10
2019-03-24T17:49:16.252Z,40.40
2019-03-24T17:51:44.703Z,40.70
2019-03-24T17:54:32.469Z,40.90
2019-03-24T17:57:00.920Z,41.20
2019-03-24T17:59:29.344Z,41.60
2019-03-24T18:01:57.885Z,42.00
2019-03-24T18:07:15.102Z,42.20
2019-03-24T18:09:43.535Z,42.40
2019-03-24T18:12:11.964Z,42.90
2019-03-24T18:14:40.388Z,43.00
2019-03-24T18:17:15.938Z,43.20
2019-03-24T18:19:44.389Z,43.30
2019-03-24T18:22:13.023Z,43.60
2019-03-24T18:24:43.188Z,43.90
2019-03-24T18:27:11.671Z,44.10
2019-03-24T18:29:40.095Z,44.30
2019-03-24T18:32:08.508Z,44.70
2019-03-24T18:34:36.954Z,44.90
2019-03-24T18:37:05.393Z,45.30
2019-03-24T18:39:33.892Z,45.60
2019-03-24T18:42:02.420Z,45.90
2019-03-24T18:44:30.869Z,46.20
2019-03-24T18:46:59.323Z,46.90
2019-03-24T18:49:27.756Z,47.40
2019-03-24T18:51:56.212Z,48.00
2019-03-24T18:54:24.642Z,48.50
2019-03-24T18:56:53.069Z,48.90
2019-03-24T18:59:21.523Z,49.40
2019-03-24T19:01:49.950Z,49.90
2019-03-24T19:04:18.571Z,50.40
2019-03-24T19:06:46.994Z,50.80
2019-03-24T19:09:15.453Z,51.20
2019-03-24T19:11:43.888Z,51.70
2019-03-24T19:14:31.674Z,52.00
2019-03-24T19:17:00.091Z,52.30
2019-03-24T19:19:28.539Z,52.60
2019-03-24T19:21:56.955Z,52.90
2019-03-24T19:24:25.436Z,53.10
2019-03-24T19:26:58.066Z,53.50
2019-03-24T19:29:26.570Z,53.60
2019-03-24T19:31:55.018Z,53.90
2019-03-24T19:34:24.446Z,54.10
2019-03-24T19:36:52.986Z,54.30
2019-03-24T19:39:21.479Z,54.50
2019-03-24T19:41:49.960Z,54.70
2019-03-24T19:44:18.557Z,54.80
2019-03-24T19:46:47.057Z,55.00
2019-03-24T19:49:15.511Z,55.00
2019-03-24T19:51:43.958Z,55.10
2019-03-24T19:54:12.435Z,55.30
2019-03-24T19:56:40.908Z,56.20
2019-03-24T19:59:09.357Z,56.40
2019-03-24T20:01:37.786Z,56.60
2019-03-24T20:04:06.311Z,56.60
2019-03-24T20:06:54.215Z,57.00
2019-03-24T20:09:22.745Z,57.30
2019-03-24T20:11:51.266Z,57.60
2019-03-24T20:14:19.817Z,57.90
2019-03-24T20:16:48.376Z,58.10
2019-03-24T20:19:16.799Z,58.50
2019-03-24T20:21:45.467Z,58.80
2019-03-24T20:24:14.971Z,59.00
2019-03-24T20:26:43.433Z,59.40
2019-03-24T20:29:11.857Z,59.60
2019-03-24T20:31:40.379Z,59.90
2019-03-24T20:34:08.919Z,60.50
2019-03-24T20:36:37.488Z,60.90
2019-03-24T20:39:08.574Z,61.50
2019-03-24T20:41:37.023Z,62.30
2019-03-24T20:44:05.794Z,62.80
2019-03-24T20:46:34.259Z,63.30
2019-03-24T20:49:02.703Z,63.70
2019-03-24T20:51:31.151Z,64.20
2019-03-24T20:53:59.604Z,64.50
2019-03-24T20:56:28.052Z,65.20
2019-03-24T20:58:56.504Z,65.60
2019-03-24T21:01:24.941Z,66.80
2019-03-24T21:03:53.387Z,66.30
2019-03-24T21:06:21.833Z,66.80
2019-03-24T21:08:50.279Z,66.90
2019-03-24T21:11:18.731Z,67.30
2019-03-24T21:13:47.151Z,68.30
2019-03-24T21:16:15.599Z,68.70
2019-03-24T21:18:44.014Z,69.20
2019-03-24T21:21:12.467Z,69.80
2019-03-24T21:23:40.921Z,70.20
2019-03-24T21:26:11.217Z,71.20
2019-03-24T21:28:39.475Z,71.00
2019-03-24T21:31:07.923Z,71.30
2019-03-24T21:33:36.688Z,71.50
2019-03-24T21:36:05.222Z,72.10
2019-03-24T21:38:33.679Z,72.40
2019-03-24T21:41:02.165Z,72.70
2019-03-24T21:43:30.737Z,72.80
2019-03-24T21:45:59.176Z,73.30
2019-03-24T21:48:27.619Z,73.70
2019-03-24T21:50:56.062Z,73.90
2019-03-24T21:53:24.515Z,74.20
2019-03-24T21:55:52.968Z,74.70
2019-03-24T21:58:40.735Z,75.00
2019-03-24T22:01:21.797Z,75.20
2019-03-24T22:03:50.206Z,75.50
2019-03-24T22:06:18.666Z,75.80
2019-03-24T22:08:47.087Z,75.80
2019-03-24T22:11:15.503Z,76.00
2019-03-24T22:13:43.955Z,76.00
2019-03-24T22:16:12.476Z,75.70
2019-03-24T22:18:40.934Z,75.80
2019-03-24T22:21:09.430Z,75.90
2019-03-24T22:23:37.939Z,75.90
2019-03-24T22:26:06.459Z,76.20
2019-03-24T22:28:34.880Z,76.30
2019-03-24T22:31:03.332Z,76.50
2019-03-24T22:33:31.845Z,76.80
2019-03-24T22:36:00.260Z,77.10
2019-03-24T22:38:28.721Z,77.90
2019-03-24T22:40:57.143Z,78.00
2019-03-24T22:43:25.556Z,78.30
2019-03-24T22:45:54.005Z,78.70
2019-03-24T22:48:22.430Z,79.30
2019-03-24T22:50:50.852Z,80.00
2019-03-24T22:53:19.308Z,80.70
2019-03-24T22:55:47.840Z,80.90
2019-03-24T22:58:16.295Z,81.50
2019-03-24T23:00:46.436Z,81.60
2019-03-24T23:03:14.915Z,82.10
2019-03-24T23:05:43.360Z,82.80
2019-03-24T23:08:11.820Z,83.00
2019-03-24T23:10:40.238Z,83.50
2019-03-24T23:13:08.895Z,84.10
2019-03-24T23:15:37.451Z,84.60
2019-03-24T23:18:05.879Z,85.10
2019-03-24T23:20:34.326Z,85.40
2019-03-24T23:23:02.753Z,85.70
2019-03-24T23:25:31.204Z,85.90
2019-03-24T23:27:59.662Z,86.30
2019-03-24T23:30:28.158Z,86.60
2019-03-24T23:32:56.615Z,86.80
2019-03-24T23:35:25.043Z,87.30
2019-03-24T23:37:53.457Z,87.60
2019-03-24T23:40:21.915Z,88.10
2019-03-24T23:42:50.403Z,88.60
2019-03-24T23:45:18.839Z,89.50
2019-03-24T23:47:47.307Z,90.00
2019-03-24T23:50:15.787Z,90.30
2019-03-24T23:52:44.243Z,90.30
2019-03-24T23:55:12.799Z,90.50
2019-03-24T23:57:41.243Z,90.70
